sensor_id;sensor_type;location;lat;lon;timestamp;P1;durP1;ratioP1;P2;durP2;ratioP2
24086;SDS011;22893;50.572;7.234;2022-08-21T00:02:22;1.87;;;1.10;;
24086;SDS011;22893;50.572;7.234;2022-08-21T00:04:51;2.15;;;1.37;;
24086;SDS011;22893;50.572;7.234;2022-08-21T00:07:19;2.08;;;1.25;;
24086;SDS011;22893;50.572;7.234;2022-08-21T00:09:47;2.17;;;1.77;;
24086;SDS011;22893;50.572;7.234;2022-08-21T00:12:15;2.95;;;1.40;;
24086;SDS011;22893;50.572;7.234;2022-08-21T00:14:42;2.20;;;1.27;;
24086;SDS011;22893;50.572;7.234;2022-08-21T00:17:10;2.05;;;1.40;;
24086;SDS011;22893;50.572;7.234;2022-08-21T00:19:38;2.90;;;1.10;;
24086;SDS011;22893;50.572;7.234;2022-08-21T00:22:05;2.30;;;1.47;;
24086;SDS011;22893;50.572;7.234;2022-08-21T00:24:33;3.17;;;1.27;;
24086;SDS011;22893;50.572;7.234;2022-08-21T00:27:01;1.75;;;1.15;;
24086;SDS011;22893;50.572;7.234;2022-08-21T00:29:28;2.37;;;1.32;;
24086;SDS011;22893;50.572;7.234;2022-08-21T00:31:56;3.77;;;1.60;;
24086;SDS011;22893;50.572;7.234;2022-08-21T00:34:24;2.67;;;1.40;;
24086;SDS011;22893;50.572;7.234;2022-08-21T00:36:52;2.40;;;1.15;;
24086;SDS011;22893;50.572;7.234;2022-08-21T00:39:19;1.95;;;1.17;;
24086;SDS011;22893;50.572;7.234;2022-08-21T00:41:47;2.98;;;1.55;;
24086;SDS011;22893;50.572;7.234;2022-08-21T00:44:15;2.50;;;1.20;;
24086;SDS011;22893;50.572;7.234;2022-08-21T00:46:43;2.60;;;1.37;;
24086;SDS011;22893;50.572;7.234;2022-08-21T00:49:10;1.80;;;1.30;;
24086;SDS011;22893;50.572;7.234;2022-08-21T00:51:54;2.42;;;1.42;;
24086;SDS011;22893;50.572;7.234;2022-08-21T00:54:19;1.82;;;1.20;;
24086;SDS011;22893;50.572;7.234;2022-08-21T00:56:50;2.10;;;1.10;;
24086;SDS011;22893;50.572;7.234;2022-08-21T00:59:20;2.95;;;1.47;;
24086;SDS011;22893;50.572;7.234;2022-08-21T01:01:49;3.00;;;1.35;;
24086;SDS011;22893;50.572;7.234;2022-08-21T01:04:18;2.47;;;1.27;;
24086;SDS011;22893;50.572;7.234;2022-08-21T01:06:46;2.65;;;1.30;;
24086;SDS011;22893;50.572;7.234;2022-08-21T01:09:13;2.67;;;1.47;;
24086;SDS011;22893;50.572;7.234;2022-08-21T01:11:41;2.35;;;1.20;;
24086;SDS011;22893;50.572;7.234;2022-08-21T01:14:10;4.08;;;1.17;;
24086;SDS011;22893;50.572;7.234;2022-08-21T01:16:44;2.92;;;1.30;;
24086;SDS011;22893;50.572;7.234;2022-08-21T01:19:12;2.80;;;1.30;;
24086;SDS011;22893;50.572;7.234;2022-08-21T01:21:41;2.40;;;1.12;;
24086;SDS011;22893;50.572;7.234;2022-08-21T01:24:08;2.60;;;1.62;;
24086;SDS011;22893;50.572;7.234;2022-08-21T01:26:36;3.08;;;1.40;;
24086;SDS011;22893;50.572;7.234;2022-08-21T01:29:26;3.55;;;1.47;;
24086;SDS011;22893;50.572;7.234;2022-08-21T01:31:53;3.55;;;1.70;;
24086;SDS011;22893;50.572;7.234;2022-08-21T01:34:21;2.52;;;1.20;;
24086;SDS011;22893;50.572;7.234;2022-08-21T01:36:49;2.80;;;1.40;;
24086;SDS011;22893;50.572;7.234;2022-08-21T01:39:18;1.75;;;1.10;;
24086;SDS011;22893;50.572;7.234;2022-08-21T01:41:45;2.45;;;1.50;;
24086;SDS011;22893;50.572;7.234;2022-08-21T01:44:13;3.17;;;1.40;;
24086;SDS011;22893;50.572;7.234;2022-08-21T01:46:40;3.20;;;1.50;;
24086;SDS011;22893;50.572;7.234;2022-08-21T01:49:08;2.90;;;1.32;;
24086;SDS011;22893;50.572;7.234;2022-08-21T01:51:35;3.17;;;1.52;;
24086;SDS011;22893;50.572;7.234;2022-08-21T01:54:03;3.45;;;1.40;;
24086;SDS011;22893;50.572;7.234;2022-08-21T01:56:35;2.45;;;1.40;;
24086;SDS011;22893;50.572;7.234;2022-08-21T01:59:04;2.87;;;1.62;;
24086;SDS011;22893;50.572;7.234;2022-08-21T02:01:33;3.08;;;1.70;;
24086;SDS011;22893;50.572;7.234;2022-08-21T02:04:01;3.42;;;1.70;;
24086;SDS011;22893;50.572;7.234;2022-08-21T02:06:29;2.15;;;1.27;;
24086;SDS011;22893;50.572;7.234;2022-08-21T02:08:56;2.02;;;1.30;;
24086;SDS011;22893;50.572;7.234;2022-08-21T02:11:24;2.62;;;1.27;;
24086;SDS011;22893;50.572;7.234;2022-08-21T02:13:51;3.30;;;1.50;;
24086;SDS011;22893;50.572;7.234;2022-08-21T02:16:19;3.22;;;1.30;;
24086;SDS011;22893;50.572;7.234;2022-08-21T02:18:47;3.10;;;1.20;;
24086;SDS011;22893;50.572;7.234;2022-08-21T02:21:14;2.80;;;1.20;;
24086;SDS011;22893;50.572;7.234;2022-08-21T02:23:42;2.95;;;1.40;;
24086;SDS011;22893;50.572;7.234;2022-08-21T02:26:10;2.12;;;1.20;;
24086;SDS011;22893;50.572;7.234;2022-08-21T02:28:38;2.42;;;1.35;;
24086;SDS011;22893;50.572;7.234;2022-08-21T02:31:06;3.08;;;1.27;;
24086;SDS011;22893;50.572;7.234;2022-08-21T02:33:34;2.02;;;1.15;;
24086;SDS011;22893;50.572;7.234;2022-08-21T02:36:02;1.42;;;1.10;;
24086;SDS011;22893;50.572;7.234;2022-08-21T02:38:32;4.10;;;1.60;;
24086;SDS011;22893;50.572;7.234;2022-08-21T02:41:02;1.50;;;1.10;;
24086;SDS011;22893;50.572;7.234;2022-08-21T02:43:30;2.77;;;1.30;;
24086;SDS011;22893;50.572;7.234;2022-08-21T02:45:58;2.52;;;1.22;;
24086;SDS011;22893;50.572;7.234;2022-08-21T02:48:27;3.27;;;1.30;;
24086;SDS011;22893;50.572;7.234;2022-08-21T02:51:00;2.25;;;1.30;;
24086;SDS011;22893;50.572;7.234;2022-08-21T02:53:29;2.80;;;1.40;;
24086;SDS011;22893;50.572;7.234;2022-08-21T02:55:58;2.55;;;1.40;;
24086;SDS011;22893;50.572;7.234;2022-08-21T02:58:29;2.12;;;1.40;;
24086;SDS011;22893;50.572;7.234;2022-08-21T03:00:58;2.90;;;1.40;;
24086;SDS011;22893;50.572;7.234;2022-08-21T03:03:26;3.40;;;1.35;;
24086;SDS011;22893;50.572;7.234;2022-08-21T03:05:55;3.58;;;1.57;;
24086;SDS011;22893;50.572;7.234;2022-08-21T03:08:23;1.60;;;0.95;;
24086;SDS011;22893;50.572;7.234;2022-08-21T03:10:51;2.45;;;1.37;;
24086;SDS011;22893;50.572;7.234;2022-08-21T03:13:19;2.15;;;1.30;;
24086;SDS011;22893;50.572;7.234;2022-08-21T03:15:48;2.62;;;1.65;;
24086;SDS011;22893;50.572;7.234;2022-08-21T03:18:16;2.52;;;1.40;;
24086;SDS011;22893;50.572;7.234;2022-08-21T03:20:44;3.10;;;1.37;;
24086;SDS011;22893;50.572;7.234;2022-08-21T03:23:12;1.95;;;1.20;;
24086;SDS011;22893;50.572;7.234;2022-08-21T03:25:41;2.52;;;1.37;;
24086;SDS011;22893;50.572;7.234;2022-08-21T03:28:10;2.67;;;1.22;;
24086;SDS011;22893;50.572;7.234;2022-08-21T03:30:45;2.58;;;1.20;;
24086;SDS011;22893;50.572;7.234;2022-08-21T03:33:09;1.98;;;1.20;;
24086;SDS011;22893;50.572;7.234;2022-08-21T03:35:37;1.80;;;1.30;;
24086;SDS011;22893;50.572;7.234;2022-08-21T03:38:04;2.60;;;1.40;;
24086;SDS011;22893;50.572;7.234;2022-08-21T03:40:32;2.20;;;1.47;;
24086;SDS011;22893;50.572;7.234;2022-08-21T03:42:59;3.60;;;1.50;;
24086;SDS011;22893;50.572;7.234;2022-08-21T03:45:27;3.05;;;1.52;;
24086;SDS011;22893;50.572;7.234;2022-08-21T03:47:56;2.72;;;1.50;;
24086;SDS011;22893;50.572;7.234;2022-08-21T03:50:26;2.50;;;1.32;;
24086;SDS011;22893;50.572;7.234;2022-08-21T03:52:56;2.60;;;1.17;;
24086;SDS011;22893;50.572;7.234;2022-08-21T03:55:24;3.70;;;1.72;;
24086;SDS011;22893;50.572;7.234;2022-08-21T03:57:52;2.92;;;1.60;;
24086;SDS011;22893;50.572;7.234;2022-08-21T04:00:20;3.58;;;1.57;;
24086;SDS011;22893;50.572;7.234;2022-08-21T04:02:49;3.05;;;1.70;;
24086;SDS011;22893;50.572;7.234;2022-08-21T04:05:17;2.95;;;1.42;;
24086;SDS011;22893;50.572;7.234;2022-08-21T04:07:47;4.40;;;1.30;;
24086;SDS011;22893;50.572;7.234;2022-08-21T04:10:14;3.30;;;1.50;;
24086;SDS011;22893;50.572;7.234;2022-08-21T04:12:42;3.58;;;1.50;;
24086;SDS011;22893;50.572;7.234;2022-08-21T04:15:10;2.77;;;1.67;;
24086;SDS011;22893;50.572;7.234;2022-08-21T04:17:38;3.55;;;1.60;;
24086;SDS011;22893;50.572;7.234;2022-08-21T04:20:06;3.08;;;1.60;;
24086;SDS011;22893;50.572;7.234;2022-08-21T04:22:34;3.00;;;1.50;;
24086;SDS011;22893;50.572;7.234;2022-08-21T04:25:02;3.85;;;1.50;;
24086;SDS011;22893;50.572;7.234;2022-08-21T04:27:29;3.27;;;1.80;;
24086;SDS011;22893;50.572;7.234;2022-08-21T04:29:57;2.47;;;1.37;;
24086;SDS011;22893;50.572;7.234;2022-08-21T04:32:25;2.58;;;1.30;;
24086;SDS011;22893;50.572;7.234;2022-08-21T04:35:06;3.08;;;1.30;;
24086;SDS011;22893;50.572;7.234;2022-08-21T04:37:30;2.35;;;1.22;;
24086;SDS011;22893;50.572;7.234;2022-08-21T04:39:58;2.40;;;1.30;;
24086;SDS011;22893;50.572;7.234;2022-08-21T04:42:26;3.95;;;1.67;;
24086;SDS011;22893;50.572;7.234;2022-08-21T04:44:55;3.12;;;1.50;;
24086;SDS011;22893;50.572;7.234;2022-08-21T04:47:23;2.87;;;1.32;;
24086;SDS011;22893;50.572;7.234;2022-08-21T04:49:51;2.12;;;1.32;;
24086;SDS011;22893;50.572;7.234;2022-08-21T04:52:19;3.87;;;1.72;;
24086;SDS011;22893;50.572;7.234;2022-08-21T04:54:49;3.37;;;1.27;;
24086;SDS011;22893;50.572;7.234;2022-08-21T04:57:18;2.30;;;1.52;;
24086;SDS011;22893;50.572;7.234;2022-08-21T04:59:47;2.45;;;1.40;;
24086;SDS011;22893;50.572;7.234;2022-08-21T05:02:17;3.27;;;1.60;;
24086;SDS011;22893;50.572;7.234;2022-08-21T05:04:47;3.05;;;1.32;;
24086;SDS011;22893;50.572;7.234;2022-08-21T05:07:20;2.65;;;1.30;;
24086;SDS011;22893;50.572;7.234;2022-08-21T05:09:53;2.10;;;1.20;;
24086;SDS011;22893;50.572;7.234;2022-08-21T05:12:21;2.55;;;1.52;;
24086;SDS011;22893;50.572;7.234;2022-08-21T05:14:49;5.22;;;2.50;;
24086;SDS011;22893;50.572;7.234;2022-08-21T05:17:16;3.17;;;1.62;;
24086;SDS011;22893;50.572;7.234;2022-08-21T05:19:44;3.27;;;1.50;;
24086;SDS011;22893;50.572;7.234;2022-08-21T05:22:18;3.08;;;1.30;;
24086;SDS011;22893;50.572;7.234;2022-08-21T05:24:51;4.67;;;1.37;;
24086;SDS011;22893;50.572;7.234;2022-08-21T05:27:18;3.22;;;1.22;;
24086;SDS011;22893;50.572;7.234;2022-08-21T05:29:46;2.50;;;1.40;;
24086;SDS011;22893;50.572;7.234;2022-08-21T05:32:14;3.02;;;1.50;;
24086;SDS011;22893;50.572;7.234;2022-08-21T05:34:41;2.15;;;1.30;;
24086;SDS011;22893;50.572;7.234;2022-08-21T05:37:10;2.58;;;1.40;;
24086;SDS011;22893;50.572;7.234;2022-08-21T05:39:38;4.00;;;1.77;;
24086;SDS011;22893;50.572;7.234;2022-08-21T05:42:06;2.60;;;1.30;;
24086;SDS011;22893;50.572;7.234;2022-08-21T16:17:51;1.67;;;1.00;;
24086;SDS011;22893;50.572;7.234;2022-08-21T16:20:22;1.98;;;0.82;;
24086;SDS011;22893;50.572;7.234;2022-08-21T16:22:51;3.30;;;0.98;;
24086;SDS011;22893;50.572;7.234;2022-08-21T16:25:21;1.27;;;0.85;;
24086;SDS011;22893;50.572;7.234;2022-08-21T16:27:52;1.75;;;0.82;;
24086;SDS011;22893;50.572;7.234;2022-08-21T16:30:21;1.35;;;0.90;;
24086;SDS011;22893;50.572;7.234;2022-08-21T16:32:49;1.35;;;0.95;;
24086;SDS011;22893;50.572;7.234;2022-08-21T16:35:18;2.62;;;0.90;;
24086;SDS011;22893;50.572;7.234;2022-08-21T16:37:46;1.22;;;0.60;;
24086;SDS011;22893;50.572;7.234;2022-08-21T16:40:15;1.92;;;1.02;;
24086;SDS011;22893;50.572;7.234;2022-08-21T16:42:42;1.40;;;0.80;;
24086;SDS011;22893;50.572;7.234;2022-08-21T16:45:12;2.52;;;1.22;;
24086;SDS011;22893;50.572;7.234;2022-08-21T16:47:41;1.30;;;0.82;;
24086;SDS011;22893;50.572;7.234;2022-08-21T16:50:10;4.10;;;1.70;;
24086;SDS011;22893;50.572;7.234;2022-08-21T16:52:42;2.70;;;0.80;;
24086;SDS011;22893;50.572;7.234;2022-08-21T16:55:10;1.60;;;1.00;;
24086;SDS011;22893;50.572;7.234;2022-08-21T16:57:37;1.42;;;0.72;;
24086;SDS011;22893;50.572;7.234;2022-08-21T17:00:06;1.02;;;0.60;;
24086;SDS011;22893;50.572;7.234;2022-08-21T17:02:38;1.80;;;0.78;;
24086;SDS011;22893;50.572;7.234;2022-08-21T17:05:07;1.50;;;0.70;;
24086;SDS011;22893;50.572;7.234;2022-08-21T17:07:37;2.85;;;0.93;;
24086;SDS011;22893;50.572;7.234;2022-08-21T17:10:05;1.85;;;1.00;;
24086;SDS011;22893;50.572;7.234;2022-08-21T17:12:34;3.27;;;0.85;;
24086;SDS011;22893;50.572;7.234;2022-08-21T17:15:08;1.90;;;0.90;;
24086;SDS011;22893;50.572;7.234;2022-08-21T17:17:33;0.98;;;0.68;;
24086;SDS011;22893;50.572;7.234;2022-08-21T17:20:02;1.27;;;0.80;;
24086;SDS011;22893;50.572;7.234;2022-08-21T17:22:30;1.80;;;0.70;;
24086;SDS011;22893;50.572;7.234;2022-08-21T17:24:57;1.60;;;0.72;;
24086;SDS011;22893;50.572;7.234;2022-08-21T17:27:25;1.27;;;0.68;;
24086;SDS011;22893;50.572;7.234;2022-08-21T17:29:53;1.40;;;0.88;;
24086;SDS011;22893;50.572;7.234;2022-08-21T17:32:22;1.00;;;0.65;;
24086;SDS011;22893;50.572;7.234;2022-08-21T17:34:50;1.95;;;0.80;;
24086;SDS011;22893;50.572;7.234;2022-08-21T17:37:17;1.42;;;0.75;;
24086;SDS011;22893;50.572;7.234;2022-08-21T17:39:46;3.02;;;0.80;;
24086;SDS011;22893;50.572;7.234;2022-08-21T17:42:13;2.00;;;1.15;;
24086;SDS011;22893;50.572;7.234;2022-08-21T17:44:42;1.27;;;0.60;;
24086;SDS011;22893;50.572;7.234;2022-08-21T17:47:12;1.25;;;0.60;;
24086;SDS011;22893;50.572;7.234;2022-08-21T17:49:40;2.70;;;0.82;;
24086;SDS011;22893;50.572;7.234;2022-08-21T17:52:07;2.40;;;0.85;;
24086;SDS011;22893;50.572;7.234;2022-08-21T17:54:35;1.45;;;0.80;;
24086;SDS011;22893;50.572;7.234;2022-08-21T17:57:05;1.98;;;0.90;;
24086;SDS011;22893;50.572;7.234;2022-08-21T17:59:34;1.30;;;0.70;;
24086;SDS011;22893;50.572;7.234;2022-08-21T18:02:03;3.52;;;0.95;;
24086;SDS011;22893;50.572;7.234;2022-08-21T18:04:32;0.88;;;0.55;;
24086;SDS011;22893;50.572;7.234;2022-08-21T18:06:59;2.05;;;0.70;;
24086;SDS011;22893;50.572;7.234;2022-08-21T18:09:27;3.42;;;0.93;;
24086;SDS011;22893;50.572;7.234;2022-08-21T18:11:55;1.92;;;0.80;;
24086;SDS011;22893;50.572;7.234;2022-08-21T18:14:30;3.08;;;0.70;;
24086;SDS011;22893;50.572;7.234;2022-08-21T18:16:55;1.20;;;0.75;;
24086;SDS011;22893;50.572;7.234;2022-08-21T18:19:23;1.82;;;0.70;;
24086;SDS011;22893;50.572;7.234;2022-08-21T18:21:52;1.17;;;0.98;;
24086;SDS011;22893;50.572;7.234;2022-08-21T18:24:20;1.17;;;0.78;;
24086;SDS011;22893;50.572;7.234;2022-08-21T18:26:48;2.77;;;0.60;;
24086;SDS011;22893;50.572;7.234;2022-08-21T18:29:18;1.25;;;0.78;;
24086;SDS011;22893;50.572;7.234;2022-08-21T18:31:47;1.98;;;0.88;;
24086;SDS011;22893;50.572;7.234;2022-08-21T18:34:23;2.67;;;0.90;;
24086;SDS011;22893;50.572;7.234;2022-08-21T18:36:52;1.77;;;0.72;;
24086;SDS011;22893;50.572;7.234;2022-08-21T18:39:20;2.17;;;0.88;;
24086;SDS011;22893;50.572;7.234;2022-08-21T18:41:49;0.72;;;0.50;;
24086;SDS011;22893;50.572;7.234;2022-08-21T18:44:18;1.47;;;0.62;;
24086;SDS011;22893;50.572;7.234;2022-08-21T18:46:49;2.42;;;0.70;;
24086;SDS011;22893;50.572;7.234;2022-08-21T18:49:18;0.80;;;0.60;;
24086;SDS011;22893;50.572;7.234;2022-08-21T18:51:46;1.35;;;0.70;;
24086;SDS011;22893;50.572;7.234;2022-08-21T18:54:13;1.47;;;0.80;;
24086;SDS011;22893;50.572;7.234;2022-08-21T18:56:41;1.95;;;0.78;;
24086;SDS011;22893;50.572;7.234;2022-08-21T18:59:09;2.33;;;0.50;;
24086;SDS011;22893;50.572;7.234;2022-08-21T19:01:38;1.85;;;0.82;;
24086;SDS011;22893;50.572;7.234;2022-08-21T19:04:06;2.58;;;0.80;;
24086;SDS011;22893;50.572;7.234;2022-08-21T19:06:35;1.32;;;0.90;;
24086;SDS011;22893;50.572;7.234;2022-08-21T19:09:03;1.62;;;1.05;;
24086;SDS011;22893;50.572;7.234;2022-08-21T19:11:34;2.08;;;0.82;;
24086;SDS011;22893;50.572;7.234;2022-08-21T19:14:09;2.27;;;0.60;;
24086;SDS011;22893;50.572;7.234;2022-08-21T19:16:37;1.95;;;0.62;;
24086;SDS011;22893;50.572;7.234;2022-08-21T19:19:07;1.62;;;0.75;;
24086;SDS011;22893;50.572;7.234;2022-08-21T19:21:36;2.90;;;1.07;;
24086;SDS011;22893;50.572;7.234;2022-08-21T19:24:04;2.02;;;0.85;;
24086;SDS011;22893;50.572;7.234;2022-08-21T19:26:33;2.50;;;0.93;;
24086;SDS011;22893;50.572;7.234;2022-08-21T19:29:02;1.95;;;0.88;;
24086;SDS011;22893;50.572;7.234;2022-08-21T19:31:32;1.17;;;0.60;;
24086;SDS011;22893;50.572;7.234;2022-08-21T19:34:06;1.40;;;0.65;;
24086;SDS011;22893;50.572;7.234;2022-08-21T19:36:35;1.00;;;0.50;;
24086;SDS011;22893;50.572;7.234;2022-08-21T19:39:03;1.70;;;0.60;;
24086;SDS011;22893;50.572;7.234;2022-08-21T19:41:33;1.67;;;1.02;;
24086;SDS011;22893;50.572;7.234;2022-08-21T19:44:04;3.60;;;0.90;;
24086;SDS011;22893;50.572;7.234;2022-08-21T19:46:34;2.33;;;0.80;;
24086;SDS011;22893;50.572;7.234;2022-08-21T19:49:03;1.92;;;0.72;;
24086;SDS011;22893;50.572;7.234;2022-08-21T19:51:33;1.40;;;0.70;;
24086;SDS011;22893;50.572;7.234;2022-08-21T19:54:02;2.42;;;0.78;;
24086;SDS011;22893;50.572;7.234;2022-08-21T19:56:31;7.95;;;1.15;;
24086;SDS011;22893;50.572;7.234;2022-08-21T19:58:59;1.25;;;0.80;;
24086;SDS011;22893;50.572;7.234;2022-08-21T20:01:26;2.00;;;0.70;;
24086;SDS011;22893;50.572;7.234;2022-08-21T20:03:54;1.77;;;0.50;;
24086;SDS011;22893;50.572;7.234;2022-08-21T20:06:22;3.12;;;0.70;;
24086;SDS011;22893;50.572;7.234;2022-08-21T20:08:50;1.92;;;0.82;;
24086;SDS011;22893;50.572;7.234;2022-08-21T20:11:34;1.20;;;0.60;;
24086;SDS011;22893;50.572;7.234;2022-08-21T20:13:59;1.32;;;0.60;;
24086;SDS011;22893;50.572;7.234;2022-08-21T20:16:27;3.33;;;1.10;;
24086;SDS011;22893;50.572;7.234;2022-08-21T20:18:56;2.77;;;0.70;;
24086;SDS011;22893;50.572;7.234;2022-08-21T20:21:25;1.52;;;0.78;;
24086;SDS011;22893;50.572;7.234;2022-08-21T20:23:52;3.35;;;0.68;;
24086;SDS011;22893;50.572;7.234;2022-08-21T20:26:20;1.40;;;0.70;;
24086;SDS011;22893;50.572;7.234;2022-08-21T20:28:48;2.45;;;1.30;;
24086;SDS011;22893;50.572;7.234;2022-08-21T20:31:16;1.67;;;0.90;;
24086;SDS011;22893;50.572;7.234;2022-08-21T20:33:46;1.20;;;0.50;;
24086;SDS011;22893;50.572;7.234;2022-08-21T20:36:14;7.53;;;0.88;;
24086;SDS011;22893;50.572;7.234;2022-08-21T20:38:42;4.12;;;0.90;;
24086;SDS011;22893;50.572;7.234;2022-08-21T20:41:10;1.87;;;0.93;;
24086;SDS011;22893;50.572;7.234;2022-08-21T20:43:38;4.95;;;0.90;;
24086;SDS011;22893;50.572;7.234;2022-08-21T20:46:07;1.12;;;0.78;;
24086;SDS011;22893;50.572;7.234;2022-08-21T20:48:37;3.30;;;1.05;;
24086;SDS011;22893;50.572;7.234;2022-08-21T20:51:11;2.95;;;1.02;;
24086;SDS011;22893;50.572;7.234;2022-08-21T20:53:50;3.27;;;0.70;;
24086;SDS011;22893;50.572;7.234;2022-08-21T20:56:30;6.53;;;0.60;;
24086;SDS011;22893;50.572;7.234;2022-08-21T20:59:59;3.83;;;0.68;;
24086;SDS011;22893;50.572;7.234;2022-08-21T21:01:48;3.00;;;0.88;;
24086;SDS011;22893;50.572;7.234;2022-08-21T21:04:39;2.85;;;1.00;;
24086;SDS011;22893;50.572;7.234;2022-08-21T21:07:17;3.65;;;0.80;;
24086;SDS011;22893;50.572;7.234;2022-08-21T21:09:49;2.37;;;0.98;;
24086;SDS011;22893;50.572;7.234;2022-08-21T21:12:24;3.60;;;0.95;;
24086;SDS011;22893;50.572;7.234;2022-08-21T21:14:54;5.30;;;1.25;;
24086;SDS011;22893;50.572;7.234;2022-08-21T21:17:34;2.70;;;0.80;;
24086;SDS011;22893;50.572;7.234;2022-08-21T21:20:14;3.37;;;1.05;;
24086;SDS011;22893;50.572;7.234;2022-08-21T21:22:50;1.20;;;0.68;;
24086;SDS011;22893;50.572;7.234;2022-08-21T21:28:06;1.35;;;0.82;;
24086;SDS011;22893;50.572;7.234;2022-08-21T21:30:45;3.67;;;1.15;;
24086;SDS011;22893;50.572;7.234;2022-08-21T21:33:08;4.33;;;1.22;;
24086;SDS011;22893;50.572;7.234;2022-08-21T21:35:43;2.17;;;0.93;;
24086;SDS011;22893;50.572;7.234;2022-08-21T21:38:23;1.82;;;0.62;;
24086;SDS011;22893;50.572;7.234;2022-08-21T21:40:57;4.17;;;1.10;;
24086;SDS011;22893;50.572;7.234;2022-08-21T21:43:57;2.92;;;0.88;;
24086;SDS011;22893;50.572;7.234;2022-08-21T21:54:49;1.37;;;0.60;;
24086;SDS011;22893;50.572;7.234;2022-08-21T21:57:38;3.47;;;0.80;;
24086;SDS011;22893;50.572;7.234;2022-08-21T22:00:08;2.95;;;0.98;;
24086;SDS011;22893;50.572;7.234;2022-08-21T22:03:00;2.25;;;1.07;;
24086;SDS011;22893;50.572;7.234;2022-08-21T22:05:35;4.00;;;0.70;;
24086;SDS011;22893;50.572;7.234;2022-08-21T22:14:03;2.30;;;0.85;;
24086;SDS011;22893;50.572;7.234;2022-08-21T22:16:33;2.98;;;1.07;;
24086;SDS011;22893;50.572;7.234;2022-08-21T22:19:05;2.60;;;0.75;;
24086;SDS011;22893;50.572;7.234;2022-08-21T22:21:35;2.52;;;0.82;;
24086;SDS011;22893;50.572;7.234;2022-08-21T22:24:07;2.50;;;0.70;;
24086;SDS011;22893;50.572;7.234;2022-08-21T22:26:42;1.82;;;0.80;;
24086;SDS011;22893;50.572;7.234;2022-08-21T22:29:18;1.10;;;0.68;;
24086;SDS011;22893;50.572;7.234;2022-08-21T22:31:59;3.15;;;0.93;;
24086;SDS011;22893;50.572;7.234;2022-08-21T22:34:32;1.95;;;0.70;;
24086;SDS011;22893;50.572;7.234;2022-08-21T22:37:01;3.20;;;0.88;;
24086;SDS011;22893;50.572;7.234;2022-08-21T22:39:32;1.47;;;0.75;;
24086;SDS011;22893;50.572;7.234;2022-08-21T22:42:11;2.25;;;0.80;;
24086;SDS011;22893;50.572;7.234;2022-08-21T22:44:32;1.98;;;0.60;;
24086;SDS011;22893;50.572;7.234;2022-08-21T22:47:01;1.80;;;0.60;;
24086;SDS011;22893;50.572;7.234;2022-08-21T22:54:52;1.77;;;0.82;;
24086;SDS011;22893;50.572;7.234;2022-08-21T22:57:23;2.05;;;0.93;;
24086;SDS011;22893;50.572;7.234;2022-08-21T23:00:00;3.12;;;0.68;;
24086;SDS011;22893;50.572;7.234;2022-08-21T23:02:32;4.10;;;0.90;;
24086;SDS011;22893;50.572;7.234;2022-08-21T23:05:15;1.80;;;0.72;;
24086;SDS011;22893;50.572;7.234;2022-08-21T23:07:51;1.55;;;0.90;;
24086;SDS011;22893;50.572;7.234;2022-08-21T23:10:24;1.75;;;0.70;;
24086;SDS011;22893;50.572;7.234;2022-08-21T23:13:00;4.00;;;0.90;;
24086;SDS011;22893;50.572;7.234;2022-08-21T23:15:46;6.72;;;0.88;;
24086;SDS011;22893;50.572;7.234;2022-08-21T23:23:33;1.52;;;0.93;;
24086;SDS011;22893;50.572;7.234;2022-08-21T23:26:19;2.08;;;0.70;;
24086;SDS011;22893;50.572;7.234;2022-08-21T23:31:34;2.60;;;0.93;;
24086;SDS011;22893;50.572;7.234;2022-08-21T23:34:25;2.08;;;0.80;;
24086;SDS011;22893;50.572;7.234;2022-08-21T23:39:57;1.72;;;0.60;;
24086;SDS011;22893;50.572;7.234;2022-08-21T23:50:46;1.10;;;0.78;;
24086;SDS011;22893;50.572;7.234;2022-08-21T23:53:30;2.83;;;0.90;;
24086;SDS011;22893;50.572;7.234;2022-08-21T23:56:09;2.08;;;0.80;;
24086;SDS011;22893;50.572;7.234;2022-08-21T23:58:57;1.65;;;0.85;;
